createdAt,value
2018-12-27T00:00:48.689Z,2.88
2018-12-27T00:01:48.679Z,2.94
2018-12-27T00:02:54.809Z,2.85
2018-12-27T00:03:48.680Z,2.88
2018-12-27T00:04:48.684Z,2.85
2018-12-27T00:05:48.639Z,2.83
2018-12-27T00:06:48.675Z,2.88
2018-12-27T00:07:48.818Z,2.93
2018-12-27T00:08:48.702Z,2.79
2018-12-27T00:09:48.679Z,2.85
2018-12-27T00:10:48.702Z,2.87
2018-12-27T00:11:48.680Z,2.83
2018-12-27T00:12:48.680Z,2.76
2018-12-27T00:13:48.672Z,2.73
2018-12-27T00:14:48.722Z,2.88
2018-12-27T00:15:48.693Z,2.93
2018-12-27T00:16:48.690Z,2.79
2018-12-27T00:17:48.660Z,2.82
2018-12-27T00:18:48.703Z,2.82
2018-12-27T00:19:48.659Z,2.75
2018-12-27T00:20:48.688Z,2.79
2018-12-27T00:21:48.688Z,2.77
2018-12-27T00:22:48.672Z,2.8
2018-12-27T00:23:48.707Z,2.77
2018-12-27T00:24:48.754Z,2.79
2018-12-27T00:25:48.715Z,2.76
2018-12-27T00:26:48.692Z,2.76
2018-12-27T00:27:48.699Z,2.69
2018-12-27T00:28:48.706Z,2.8
2018-12-27T00:29:48.701Z,2.73
2018-12-27T00:30:48.762Z,2.79
2018-12-27T00:31:48.740Z,2.76
2018-12-27T00:32:48.682Z,2.72
2018-12-27T00:33:48.723Z,2.79
2018-12-27T00:34:48.734Z,2.73
2018-12-27T00:35:48.706Z,2.69
2018-12-27T00:36:49.013Z,2.64
2018-12-27T00:37:48.793Z,2.62
2018-12-27T00:38:48.734Z,2.73
2018-12-27T00:45:27.508Z,2.76
2018-12-27T00:46:27.501Z,2.69
2018-12-27T00:47:27.496Z,2.7
2018-12-27T00:48:27.567Z,2.72
2018-12-27T00:49:27.532Z,2.65
2018-12-27T00:50:27.556Z,2.7
2018-12-27T00:51:27.524Z,2.72
2018-12-27T00:52:27.550Z,2.77
2018-12-27T00:53:27.569Z,2.64
2018-12-27T00:54:27.502Z,2.73
2018-12-27T00:55:27.568Z,2.7
2018-12-27T00:56:27.502Z,2.7
2018-12-27T00:57:27.608Z,2.73
2018-12-27T00:58:27.534Z,2.75
2018-12-27T00:59:27.522Z,2.75
2018-12-27T01:00:27.467Z,2.7
2018-12-27T01:01:27.521Z,2.75
2018-12-27T01:02:27.508Z,2.72
2018-12-27T01:03:27.502Z,2.73
2018-12-27T01:04:27.526Z,2.75
2018-12-27T01:05:27.503Z,2.75
2018-12-27T01:06:27.534Z,2.73
2018-12-27T01:07:27.548Z,2.75
2018-12-27T01:08:27.578Z,2.77
2018-12-27T01:09:27.547Z,2.76
2018-12-27T01:10:27.511Z,2.76
2018-12-27T01:11:27.503Z,2.76
2018-12-27T01:12:27.545Z,2.79
2018-12-27T01:13:27.576Z,2.72
2018-12-27T01:14:27.585Z,2.8
2018-12-27T01:15:27.526Z,2.79
2018-12-27T01:16:27.608Z,2.87
2018-12-27T01:17:27.554Z,2.91
2018-12-27T01:18:27.531Z,2.9
2018-12-27T01:19:27.521Z,2.9
2018-12-27T01:20:27.596Z,2.91
2018-12-27T01:21:27.601Z,2.97
2018-12-27T01:22:27.559Z,2.88
2018-12-27T01:23:27.509Z,2.93
2018-12-27T01:24:27.552Z,2.87
2018-12-27T01:29:46.299Z,2.8
2018-12-27T01:36:26.472Z,2.76
2018-12-27T01:36:39.045Z,2.79
2018-12-27T01:37:39.101Z,2.85
2018-12-27T01:38:39.138Z,2.8
2018-12-27T01:39:39.108Z,2.75
2018-12-27T01:40:39.089Z,2.8
2018-12-27T01:41:39.090Z,2.72
2018-12-27T01:42:39.095Z,2.76
2018-12-27T01:43:39.142Z,2.76
2018-12-27T01:44:39.107Z,2.75
2018-12-27T01:45:39.080Z,2.7
2018-12-27T01:46:39.083Z,2.79
2018-12-27T01:47:39.147Z,2.79
2018-12-27T01:48:39.124Z,2.76
2018-12-27T01:49:39.141Z,2.88
2018-12-27T01:50:39.156Z,2.73
2018-12-27T01:51:39.091Z,2.76
2018-12-27T01:52:39.478Z,2.83
2018-12-27T01:53:39.171Z,2.8
2018-12-27T01:54:39.111Z,2.79
2018-12-27T01:55:39.081Z,2.76
2018-12-27T01:56:39.123Z,2.79
2018-12-27T01:57:39.156Z,2.75
2018-12-27T01:58:39.134Z,2.7
2018-12-27T01:59:39.066Z,2.9
2018-12-27T02:00:39.102Z,2.77
2018-12-27T02:08:04.721Z,2.79
2018-12-27T02:08:17.355Z,2.82
2018-12-27T02:09:17.335Z,2.91
2018-12-27T02:10:17.368Z,2.97
2018-12-27T02:11:17.336Z,2.91
2018-12-27T02:12:17.336Z,2.85
2018-12-27T02:13:17.350Z,2.93
2018-12-27T02:14:17.324Z,2.91
2018-12-27T02:15:17.356Z,2.87
2018-12-27T02:16:17.349Z,2.91
2018-12-27T02:17:17.314Z,2.93
2018-12-27T02:18:17.334Z,2.93
2018-12-27T02:22:46.020Z,2.91
2018-12-27T02:23:45.995Z,2.79
2018-12-27T02:24:46.004Z,2.95
2018-12-27T02:25:45.996Z,2.9
2018-12-27T02:26:45.991Z,2.85
2018-12-27T02:27:45.975Z,2.88
2018-12-27T02:28:46.034Z,3.01
2018-12-27T02:29:46.051Z,2.97
2018-12-27T02:30:46.023Z,2.91
2018-12-27T02:31:46.041Z,2.85
2018-12-27T02:32:46.007Z,2.8
2018-12-27T02:33:46.027Z,2.91
2018-12-27T02:39:02.587Z,2.79
2018-12-27T02:39:15.478Z,2.88
2018-12-27T02:40:15.215Z,2.91
2018-12-27T02:41:15.258Z,2.94
2018-12-27T02:42:15.187Z,2.91
2018-12-27T02:43:15.177Z,2.87
2018-12-27T02:44:15.216Z,2.95
2018-12-27T02:49:32.205Z,2.88
2018-12-27T02:49:44.872Z,2.83
2018-12-27T02:50:44.913Z,2.91
2018-12-27T02:51:44.866Z,2.87
2018-12-27T02:52:44.860Z,2.79
2018-12-27T02:53:44.917Z,2.83
2018-12-27T02:54:44.832Z,2.77
2018-12-27T02:55:44.879Z,2.93
2018-12-27T02:56:44.899Z,2.83
2018-12-27T02:57:44.830Z,2.79
2018-12-27T02:58:44.868Z,2.94
2018-12-27T02:59:44.871Z,2.83
2018-12-27T03:00:44.835Z,2.91
2018-12-27T03:01:44.892Z,2.87
2018-12-27T03:02:44.890Z,2.9
2018-12-27T03:03:49.848Z,2.83
2018-12-27T03:04:44.941Z,2.87
2018-12-27T03:05:44.942Z,2.88
2018-12-27T03:06:44.924Z,2.94
2018-12-27T03:07:44.881Z,2.85
2018-12-27T03:08:44.919Z,2.9
2018-12-27T03:09:44.910Z,2.85
2018-12-27T03:10:44.903Z,2.9
2018-12-27T03:11:44.841Z,2.91
2018-12-27T03:12:44.926Z,2.9
2018-12-27T03:13:44.887Z,2.85
2018-12-27T03:19:01.579Z,2.85
2018-12-27T03:19:14.481Z,2.83
2018-12-27T03:20:14.504Z,2.87
2018-12-27T03:21:14.532Z,2.93
2018-12-27T03:22:14.441Z,2.83
2018-12-27T03:23:14.464Z,2.91
2018-12-27T03:24:14.481Z,2.9
2018-12-27T03:25:14.429Z,2.9
2018-12-27T03:26:14.497Z,2.91
2018-12-27T03:27:14.588Z,2.83
2018-12-27T03:28:14.609Z,2.91
2018-12-27T03:29:14.500Z,2.9
2018-12-27T03:30:14.484Z,2.8
2018-12-27T03:31:14.495Z,2.77
2018-12-27T03:32:14.557Z,2.73
2018-12-27T03:33:14.559Z,2.82
2018-12-27T03:39:56.247Z,2.72
2018-12-27T03:40:56.172Z,2.72
2018-12-27T03:41:56.181Z,2.85
2018-12-27T03:42:56.140Z,2.83
2018-12-27T03:43:56.177Z,2.77
2018-12-27T03:49:12.753Z,2.75
2018-12-27T03:49:25.533Z,2.76
2018-12-27T03:50:25.493Z,2.83
2018-12-27T03:51:25.387Z,2.79
2018-12-27T03:52:25.349Z,2.87
2018-12-27T03:53:25.350Z,2.72
2018-12-27T03:54:25.374Z,2.72
2018-12-27T03:55:25.411Z,2.79
2018-12-27T03:56:25.448Z,2.83
2018-12-27T03:57:25.386Z,2.73
2018-12-27T03:58:25.421Z,2.79
2018-12-27T03:59:25.359Z,2.76
2018-12-27T04:00:25.377Z,2.85
2018-12-27T04:01:25.400Z,2.73
2018-12-27T04:02:25.372Z,2.79
2018-12-27T04:03:25.390Z,2.85
2018-12-27T04:04:25.394Z,2.97
2018-12-27T04:05:25.411Z,2.85
2018-12-27T04:09:55.853Z,2.83
2018-12-27T04:10:55.875Z,2.88
2018-12-27T04:11:55.842Z,2.87
2018-12-27T04:17:13.509Z,2.8
2018-12-27T04:17:26.267Z,2.87
2018-12-27T04:18:26.233Z,2.77
2018-12-27T04:19:26.256Z,2.85
2018-12-27T04:20:26.255Z,2.8
2018-12-27T04:21:26.317Z,2.73
2018-12-27T04:22:26.257Z,2.75
2018-12-27T04:23:26.408Z,2.73
2018-12-27T04:24:26.308Z,2.7
2018-12-27T04:25:26.294Z,2.75
2018-12-27T04:26:26.268Z,2.91
2018-12-27T04:27:26.328Z,2.73
2018-12-27T04:28:26.310Z,2.87
2018-12-27T04:29:26.308Z,2.8
2018-12-27T04:30:26.252Z,2.79
2018-12-27T04:31:26.255Z,2.77
2018-12-27T04:32:26.341Z,2.82
2018-12-27T04:33:26.254Z,2.87
2018-12-27T04:34:26.245Z,2.83
2018-12-27T04:35:26.239Z,2.82
2018-12-27T04:36:26.250Z,2.88
2018-12-27T04:37:26.259Z,2.76
2018-12-27T04:38:26.246Z,2.87
2018-12-27T04:39:26.279Z,2.85
2018-12-27T04:40:26.284Z,2.8
2018-12-27T04:41:26.255Z,2.9
2018-12-27T04:42:26.333Z,2.82
2018-12-27T04:43:26.307Z,2.75
2018-12-27T04:44:26.342Z,2.83
2018-12-27T04:45:26.272Z,2.8
2018-12-27T04:50:43.979Z,2.87
2018-12-27T04:50:56.652Z,2.87
2018-12-27T04:51:56.579Z,2.83
2018-12-27T04:52:56.747Z,2.93
2018-12-27T04:53:56.640Z,2.76
2018-12-27T04:54:56.623Z,2.91
2018-12-27T04:55:56.647Z,2.85
2018-12-27T04:56:56.641Z,2.77
2018-12-27T04:57:57.006Z,2.85
2018-12-27T04:58:58.942Z,2.93
2018-12-27T04:59:56.630Z,2.9
2018-12-27T05:00:56.625Z,2.85
2018-12-27T05:01:56.635Z,2.9
2018-12-27T05:02:56.639Z,2.85
2018-12-27T05:03:56.599Z,2.79
2018-12-27T05:04:56.665Z,2.83
2018-12-27T05:05:56.697Z,2.82
2018-12-27T05:06:56.671Z,2.83
2018-12-27T05:07:56.623Z,2.85
2018-12-27T05:08:56.632Z,2.88
2018-12-27T05:09:56.683Z,2.87
2018-12-27T05:10:56.668Z,2.91
2018-12-27T05:11:56.623Z,2.97
2018-12-27T05:12:56.659Z,2.88
2018-12-27T05:13:58.216Z,2.8
2018-12-27T05:14:56.652Z,2.83
2018-12-27T05:15:56.630Z,2.91
2018-12-27T05:16:56.664Z,2.83
2018-12-27T05:17:56.636Z,2.85
2018-12-27T05:18:56.652Z,2.94
2018-12-27T05:19:56.659Z,2.9
2018-12-27T05:20:56.658Z,2.95
2018-12-27T05:21:56.650Z,2.9
2018-12-27T05:22:56.668Z,2.93
2018-12-27T05:23:56.697Z,2.94
2018-12-27T05:24:56.646Z,3
2018-12-27T05:25:56.651Z,2.93
2018-12-27T05:26:56.683Z,2.93
2018-12-27T05:27:56.679Z,2.95
2018-12-27T05:28:56.714Z,2.98
2018-12-27T05:29:56.679Z,3.05
2018-12-27T05:30:56.644Z,3
2018-12-27T05:31:57.663Z,2.97
2018-12-27T05:32:56.687Z,3.01
2018-12-27T05:33:56.700Z,3
2018-12-27T05:34:56.671Z,3.05
2018-12-27T05:35:56.678Z,3.05
2018-12-27T05:36:58.094Z,2.97
2018-12-27T05:37:56.719Z,3
2018-12-27T05:38:56.661Z,2.95
2018-12-27T05:39:56.684Z,2.98
2018-12-27T05:40:56.715Z,3.01
2018-12-27T05:41:56.658Z,3
2018-12-27T05:42:57.151Z,2.95
2018-12-27T05:43:56.676Z,3.03
2018-12-27T05:44:56.673Z,2.91
2018-12-27T05:45:56.686Z,2.95
2018-12-27T05:46:56.734Z,3.08
2018-12-27T05:47:56.711Z,2.97
2018-12-27T05:48:56.664Z,2.95
2018-12-27T05:49:56.751Z,3.06
2018-12-27T05:50:56.712Z,2.95
2018-12-27T05:51:56.662Z,2.95
2018-12-27T05:52:56.725Z,3
2018-12-27T05:53:56.704Z,3
2018-12-27T05:54:56.689Z,2.97
2018-12-27T05:55:56.694Z,3.01
2018-12-27T05:56:56.688Z,2.95
2018-12-27T05:57:57.724Z,2.87
2018-12-27T05:58:56.769Z,2.95
2018-12-27T05:59:56.780Z,2.9
2018-12-27T06:00:56.721Z,2.95
2018-12-27T06:01:56.733Z,2.97
2018-12-27T06:02:56.679Z,2.93
2018-12-27T06:03:56.723Z,2.95
2018-12-27T06:04:56.752Z,2.93
2018-12-27T06:05:56.773Z,2.88
2018-12-27T06:06:56.742Z,2.93
2018-12-27T06:07:56.711Z,2.8
2018-12-27T06:08:56.718Z,2.88
2018-12-27T06:09:56.741Z,2.87
2018-12-27T06:10:56.748Z,3.01
2018-12-27T06:11:56.724Z,2.91
2018-12-27T06:12:56.785Z,2.87
2018-12-27T06:13:56.756Z,2.91
2018-12-27T06:14:56.720Z,2.8
2018-12-27T06:15:56.815Z,2.8
2018-12-27T06:16:56.746Z,2.9
2018-12-27T06:17:56.721Z,2.9
2018-12-27T06:18:56.738Z,2.91
2018-12-27T06:19:56.701Z,2.83
2018-12-27T06:20:56.782Z,2.88
2018-12-27T06:21:56.753Z,2.9
2018-12-27T06:22:56.747Z,2.9
2018-12-27T06:23:56.739Z,2.73
2018-12-27T06:24:56.762Z,2.85
2018-12-27T06:25:56.758Z,2.82
2018-12-27T06:26:56.752Z,2.79
2018-12-27T06:27:56.735Z,2.8
2018-12-27T06:28:56.786Z,2.79
2018-12-27T06:29:56.785Z,2.72
2018-12-27T06:30:56.775Z,2.83
2018-12-27T06:31:56.808Z,2.8
2018-12-27T06:32:56.761Z,2.72
2018-12-27T06:33:56.772Z,2.73
2018-12-27T06:34:56.790Z,2.77
2018-12-27T06:35:56.758Z,2.75
2018-12-27T06:36:56.751Z,2.75
2018-12-27T06:37:56.742Z,2.85
2018-12-27T06:38:56.815Z,2.76
2018-12-27T06:39:56.821Z,2.75
2018-12-27T06:40:56.779Z,2.88
2018-12-27T06:41:56.862Z,2.87
2018-12-27T06:42:56.766Z,2.76
2018-12-27T06:43:56.773Z,2.83
2018-12-27T06:44:56.790Z,2.9
2018-12-27T06:45:56.763Z,2.87
2018-12-27T06:46:56.784Z,2.8
2018-12-27T06:47:56.790Z,2.83
2018-12-27T06:48:56.785Z,2.75
2018-12-27T06:49:56.818Z,2.87
2018-12-27T06:50:56.812Z,2.79
2018-12-27T06:51:56.778Z,2.93
2018-12-27T06:59:23.692Z,2.83
2018-12-27T06:59:36.396Z,2.77
2018-12-27T07:00:36.314Z,2.75
2018-12-27T07:01:36.444Z,2.7
2018-12-27T07:02:36.291Z,2.65
2018-12-27T07:03:36.435Z,2.61
2018-12-27T07:04:36.358Z,2.72
2018-12-27T07:05:36.390Z,2.65
2018-12-27T07:06:36.316Z,2.7
2018-12-27T07:07:36.501Z,2.77
2018-12-27T07:08:36.409Z,2.65
2018-12-27T07:09:36.449Z,2.73
2018-12-27T07:10:36.586Z,2.68
2018-12-27T07:17:15.924Z,2.75
2018-12-27T07:18:15.916Z,2.64
2018-12-27T07:19:15.911Z,2.62
2018-12-27T07:20:15.911Z,2.72
2018-12-27T07:21:15.896Z,2.69
2018-12-27T07:22:15.946Z,2.65
2018-12-27T07:23:15.927Z,2.76
2018-12-27T07:24:15.912Z,2.72
2018-12-27T07:25:15.936Z,2.68
2018-12-27T07:26:15.912Z,2.68
2018-12-27T07:27:15.953Z,2.73
2018-12-27T07:28:15.923Z,2.65
2018-12-27T07:29:15.948Z,2.68
2018-12-27T07:30:15.932Z,2.61
2018-12-27T07:31:15.915Z,2.68
2018-12-27T07:32:15.957Z,2.59
2018-12-27T07:33:15.930Z,2.55
2018-12-27T07:34:15.937Z,2.47
2018-12-27T07:35:16.214Z,2.55
2018-12-27T07:36:15.975Z,2.54
2018-12-27T07:37:15.942Z,2.54
2018-12-27T07:38:15.964Z,2.59
2018-12-27T07:39:15.891Z,2.51
2018-12-27T07:40:15.897Z,2.51
2018-12-27T07:41:15.912Z,2.5
2018-12-27T07:42:15.934Z,2.58
2018-12-27T07:43:15.919Z,2.5
2018-12-27T07:44:15.940Z,2.58
2018-12-27T07:45:15.974Z,2.37
2018-12-27T07:49:44.770Z,2.52
2018-12-27T07:50:44.742Z,2.44
2018-12-27T07:51:44.781Z,2.44
2018-12-27T07:52:44.720Z,2.55
2018-12-27T07:53:44.757Z,2.52
2018-12-27T07:54:44.768Z,2.5
2018-12-27T07:55:44.790Z,2.55
2018-12-27T07:56:44.742Z,2.57
2018-12-27T07:57:44.721Z,2.61
2018-12-27T07:58:44.766Z,2.55
2018-12-27T07:59:44.743Z,2.57
2018-12-27T08:00:44.754Z,2.52
2018-12-27T08:01:44.754Z,2.68
2018-12-27T08:02:44.755Z,2.61
2018-12-27T08:03:44.797Z,2.65
2018-12-27T08:04:44.779Z,2.61
2018-12-27T08:05:44.714Z,2.65
2018-12-27T08:06:44.780Z,2.64
2018-12-27T08:07:44.797Z,2.65
2018-12-27T08:08:44.908Z,2.72
2018-12-27T08:09:44.784Z,2.8
2018-12-27T08:10:44.794Z,2.82
2018-12-27T08:11:44.777Z,2.83
2018-12-27T08:12:44.802Z,2.88
2018-12-27T08:13:44.772Z,2.87
2018-12-27T08:14:44.733Z,2.91
2018-12-27T08:15:44.772Z,2.88
2018-12-27T08:16:45.186Z,2.97
2018-12-27T08:17:44.782Z,2.95
2018-12-27T08:18:44.770Z,2.97
2018-12-27T08:19:44.798Z,2.98
2018-12-27T08:20:44.781Z,2.98
2018-12-27T08:21:44.758Z,3
2018-12-27T08:22:44.947Z,2.98
2018-12-27T08:23:44.773Z,3
2018-12-27T08:24:44.794Z,2.98
2018-12-27T08:25:44.803Z,2.98
2018-12-27T08:26:44.755Z,3.05
2018-12-27T08:27:44.775Z,3.01
2018-12-27T08:28:44.834Z,3.03
2018-12-27T08:29:44.806Z,2.95
2018-12-27T08:30:44.819Z,2.98
2018-12-27T08:31:44.805Z,3
2018-12-27T08:32:44.797Z,3
2018-12-27T08:33:44.802Z,2.98
2018-12-27T08:34:44.826Z,2.98
2018-12-27T08:35:44.789Z,3.12
2018-12-27T08:36:44.797Z,3.08
2018-12-27T08:37:44.786Z,3.11
2018-12-27T08:38:44.786Z,3.09
2018-12-27T08:39:44.818Z,3.16
2018-12-27T08:40:44.832Z,3.33
2018-12-27T08:41:44.876Z,3.27
2018-12-27T08:42:44.825Z,3.3
2018-12-27T08:43:44.793Z,3.29
2018-12-27T08:44:44.826Z,3.37
2018-12-27T08:45:45.115Z,3.36
2018-12-27T08:46:44.876Z,3.36
2018-12-27T08:47:45.009Z,3.46
2018-12-27T08:48:44.855Z,3.48
2018-12-27T08:49:44.920Z,3.33
2018-12-27T08:50:44.867Z,3.5
2018-12-27T08:56:01.466Z,3.36
2018-12-27T08:56:14.061Z,3.29
2018-12-27T08:57:14.154Z,3.36
2018-12-27T08:58:14.136Z,3.4
2018-12-27T08:59:14.042Z,3.27
2018-12-27T09:00:14.120Z,3.3
2018-12-27T09:01:14.075Z,3.33
2018-12-27T09:02:14.059Z,3.34
2018-12-27T09:03:14.089Z,3.31
2018-12-27T09:04:14.145Z,3.36
2018-12-27T09:05:18.780Z,3.4
2018-12-27T09:06:14.072Z,3.31
2018-12-27T09:07:14.115Z,3.34
2018-12-27T09:08:14.064Z,3.29
2018-12-27T09:09:14.045Z,3.29
2018-12-27T09:10:14.069Z,3.3
2018-12-27T09:11:14.160Z,3.36
2018-12-27T09:12:14.187Z,3.19
2018-12-27T09:13:14.119Z,3.27
2018-12-27T09:14:14.147Z,3.29
2018-12-27T09:15:14.172Z,3.37
2018-12-27T09:16:14.139Z,3.33
2018-12-27T09:17:14.156Z,3.34
2018-12-27T09:18:14.150Z,3.45
2018-12-27T09:19:14.066Z,3.43
2018-12-27T09:20:14.168Z,3.41
2018-12-27T09:21:14.275Z,3.49
2018-12-27T09:22:14.152Z,3.53
2018-12-27T09:23:14.053Z,3.34
2018-12-27T09:24:14.125Z,3.53
2018-12-27T09:25:14.136Z,3.41
2018-12-27T09:26:14.151Z,3.46
2018-12-27T09:27:14.149Z,3.43
2018-12-27T09:28:14.201Z,3.58
2018-12-27T09:29:14.199Z,3.5
2018-12-27T09:30:14.229Z,3.53
2018-12-27T09:31:14.175Z,3.5
2018-12-27T09:32:14.150Z,3.61
2018-12-27T09:33:14.096Z,3.46
2018-12-27T09:34:14.101Z,3.46
2018-12-27T09:35:14.117Z,3.4
2018-12-27T09:36:14.103Z,3.5
2018-12-27T09:37:14.150Z,3.5
2018-12-27T09:38:14.103Z,3.5
2018-12-27T09:39:14.815Z,3.5
2018-12-27T09:40:14.137Z,3.46
2018-12-27T09:41:14.097Z,3.46
2018-12-27T09:42:14.111Z,3.5
2018-12-27T09:43:14.063Z,3.49
2018-12-27T09:44:14.119Z,3.63
2018-12-27T09:45:14.226Z,3.5
2018-12-27T09:46:14.137Z,3.52
2018-12-27T09:47:14.175Z,3.64
2018-12-27T09:48:14.147Z,3.55
2018-12-27T09:49:14.189Z,3.63
2018-12-27T09:50:14.180Z,3.59
2018-12-27T09:51:14.129Z,3.61
2018-12-27T09:52:14.254Z,3.63
2018-12-27T09:53:14.176Z,3.7
2018-12-27T09:54:14.158Z,3.7
2018-12-27T09:55:14.232Z,3.7
2018-12-27T09:56:14.180Z,3.63
2018-12-27T09:57:14.254Z,3.66
2018-12-27T09:58:14.167Z,3.61
2018-12-27T09:59:14.164Z,3.58
2018-12-27T10:00:14.166Z,3.56
2018-12-27T10:01:14.234Z,3.64
2018-12-27T10:02:14.153Z,3.63
2018-12-27T10:03:14.163Z,3.64
2018-12-27T10:04:14.224Z,3.73
2018-12-27T10:05:14.157Z,3.68
2018-12-27T10:06:14.178Z,3.73
2018-12-27T10:07:14.102Z,3.78
2018-12-27T10:08:14.173Z,3.77
2018-12-27T10:09:14.144Z,3.78
2018-12-27T10:12:21.183Z,3.81
2018-12-27T10:12:33.900Z,3.77
2018-12-27T10:13:33.821Z,3.78
2018-12-27T10:14:33.854Z,3.71
2018-12-27T10:15:33.919Z,3.68
2018-12-27T10:16:33.890Z,3.74
2018-12-27T10:17:33.854Z,3.74
2018-12-27T10:18:33.903Z,3.71
2018-12-27T10:19:33.878Z,3.76
2018-12-27T10:20:33.891Z,3.78
2018-12-27T10:21:33.894Z,3.76
2018-12-27T10:22:35.432Z,3.88
2018-12-27T10:23:33.869Z,3.77
2018-12-27T10:24:33.822Z,3.85
2018-12-27T10:25:33.908Z,3.85
2018-12-27T10:26:33.931Z,3.81
2018-12-27T10:27:34.011Z,3.85
2018-12-27T10:28:33.883Z,3.76
2018-12-27T10:29:34.040Z,3.77
2018-12-27T10:30:33.894Z,3.78
2018-12-27T10:31:33.923Z,3.88
2018-12-27T10:32:33.892Z,3.84
2018-12-27T10:33:33.991Z,3.88
2018-12-27T10:34:33.865Z,3.89
2018-12-27T10:35:40.906Z,3.99
2018-12-27T10:36:33.920Z,4.03
2018-12-27T10:37:33.915Z,4.06
2018-12-27T10:38:33.896Z,4.07
2018-12-27T10:39:33.953Z,4.16
2018-12-27T10:40:33.950Z,4.14
2018-12-27T10:41:33.935Z,4.09
2018-12-27T10:42:33.908Z,4.14
2018-12-27T10:43:33.925Z,4.13
2018-12-27T10:44:33.905Z,4.13
2018-12-27T10:45:33.899Z,4.2
2018-12-27T10:46:33.936Z,4.24
2018-12-27T10:47:33.898Z,4.34
2018-12-27T10:48:33.985Z,4.31
2018-12-27T10:49:33.902Z,4.3
2018-12-27T10:50:33.895Z,4.36
2018-12-27T10:51:33.935Z,4.4
2018-12-27T10:52:33.923Z,4.38
2018-12-27T10:53:33.929Z,4.46
2018-12-27T10:54:33.942Z,4.43
2018-12-27T10:55:33.953Z,4.46
2018-12-27T10:56:33.948Z,4.42
2018-12-27T10:57:34.880Z,4.46
2018-12-27T10:58:33.921Z,4.46
2018-12-27T10:59:35.438Z,4.45
2018-12-27T11:00:34.155Z,4.52
2018-12-27T11:01:33.927Z,4.66
2018-12-27T11:02:33.913Z,4.63
2018-12-27T11:03:36.632Z,4.61
2018-12-27T11:04:34.039Z,4.64
2018-12-27T11:05:33.963Z,4.63
2018-12-27T11:06:34.066Z,4.64
2018-12-27T11:07:33.976Z,4.53
2018-12-27T11:08:33.981Z,4.67
2018-12-27T11:09:33.957Z,4.74
2018-12-27T11:10:33.950Z,4.67
2018-12-27T11:11:33.949Z,4.68
2018-12-27T11:12:33.993Z,4.75
2018-12-27T11:13:33.998Z,4.79
2018-12-27T11:14:33.965Z,4.71
2018-12-27T11:15:33.959Z,4.76
2018-12-27T11:16:33.952Z,4.66
2018-12-27T11:17:33.958Z,4.68
2018-12-27T11:18:34.464Z,4.68
2018-12-27T11:19:34.068Z,4.75
2018-12-27T11:20:34.008Z,4.82
2018-12-27T11:21:33.948Z,4.76
2018-12-27T11:22:33.969Z,4.66
2018-12-27T11:23:34.013Z,4.74
2018-12-27T11:24:34.008Z,4.78
2018-12-27T11:25:33.928Z,4.78
2018-12-27T11:26:33.952Z,4.82
2018-12-27T11:27:33.963Z,4.87
2018-12-27T11:28:33.982Z,4.83
2018-12-27T11:29:34.070Z,4.82
2018-12-27T11:30:34.020Z,4.79
2018-12-27T11:31:33.990Z,4.79
2018-12-27T11:32:34.021Z,4.78
2018-12-27T11:33:34.199Z,4.67
2018-12-27T11:34:34.010Z,4.74
2018-12-27T11:35:34.041Z,4.67
2018-12-27T11:36:33.990Z,4.58
2018-12-27T11:37:33.997Z,4.64
2018-12-27T11:38:33.974Z,4.67
2018-12-27T11:39:34.109Z,4.7
2018-12-27T11:40:33.971Z,4.68
2018-12-27T11:41:34.001Z,4.6
2018-12-27T11:42:38.405Z,4.61
2018-12-27T11:43:33.972Z,4.71
2018-12-27T11:44:34.049Z,4.61
2018-12-27T11:45:33.970Z,4.67
2018-12-27T11:46:34.011Z,4.56
2018-12-27T11:47:34.017Z,4.52
2018-12-27T11:48:34.078Z,4.53
2018-12-27T11:49:34.165Z,4.58
2018-12-27T11:50:34.964Z,4.64
2018-12-27T11:51:34.006Z,4.56
2018-12-27T11:52:34.030Z,4.61
2018-12-27T11:53:34.020Z,4.56
2018-12-27T11:54:34.133Z,4.5
2018-12-27T11:55:34.004Z,4.6
2018-12-27T11:56:34.043Z,4.64
2018-12-27T11:57:34.006Z,4.64
2018-12-27T11:58:33.997Z,4.58
2018-12-27T11:59:34.133Z,4.64
2018-12-27T12:00:34.026Z,4.63
2018-12-27T12:01:34.098Z,4.6
2018-12-27T12:02:37.942Z,4.61
2018-12-27T12:03:34.004Z,4.6
2018-12-27T12:04:34.042Z,4.58
2018-12-27T12:05:34.060Z,4.48
2018-12-27T12:06:34.021Z,4.53
2018-12-27T12:13:14.749Z,4.6
2018-12-27T12:14:14.706Z,4.52
2018-12-27T12:15:14.655Z,4.57
2018-12-27T12:16:14.614Z,4.63
2018-12-27T12:17:15.073Z,4.61
2018-12-27T12:18:14.714Z,4.68
2018-12-27T12:19:14.802Z,4.71
2018-12-27T12:20:14.656Z,4.6
2018-12-27T12:21:14.592Z,4.71
2018-12-27T12:22:14.770Z,4.79
2018-12-27T12:23:14.796Z,4.66
2018-12-27T12:24:14.785Z,4.76
2018-12-27T12:25:14.777Z,4.7
2018-12-27T12:26:14.768Z,4.7
2018-12-27T12:27:14.790Z,4.7
2018-12-27T12:28:14.755Z,4.63
2018-12-27T12:29:14.850Z,4.7
2018-12-27T12:30:14.653Z,4.67
2018-12-27T12:31:14.690Z,4.64
2018-12-27T12:32:14.600Z,4.71
2018-12-27T12:33:14.640Z,4.74
2018-12-27T12:34:14.633Z,4.68
2018-12-27T12:35:14.722Z,4.68
2018-12-27T12:36:17.045Z,4.61
2018-12-27T12:37:19.991Z,4.61
2018-12-27T12:38:14.703Z,4.63
2018-12-27T12:39:14.630Z,4.66
2018-12-27T12:40:14.680Z,4.78
2018-12-27T12:41:14.767Z,4.83
2018-12-27T12:42:15.589Z,4.76
2018-12-27T12:43:14.781Z,4.83
2018-12-27T12:44:14.774Z,4.79
2018-12-27T12:45:15.016Z,4.84
2018-12-27T12:46:14.914Z,4.84
2018-12-27T12:47:14.884Z,4.86
2018-12-27T12:48:15.003Z,4.9
2018-12-27T12:49:14.717Z,4.86
2018-12-27T12:50:14.684Z,4.92
2018-12-27T12:51:14.639Z,4.9
2018-12-27T12:52:14.724Z,4.9
2018-12-27T12:53:15.177Z,4.94
2018-12-27T12:54:14.766Z,4.83
2018-12-27T12:55:14.806Z,4.87
2018-12-27T12:56:14.853Z,4.92
2018-12-27T12:57:14.681Z,4.86
2018-12-27T12:58:14.703Z,4.9
2018-12-27T12:59:14.665Z,4.98
2018-12-27T13:00:14.826Z,4.94
2018-12-27T13:01:14.876Z,5.01
2018-12-27T13:02:14.881Z,4.94
2018-12-27T13:03:14.773Z,4.98
2018-12-27T13:04:14.784Z,4.98
2018-12-27T13:05:14.684Z,4.97
2018-12-27T13:06:21.200Z,4.98
2018-12-27T13:07:14.654Z,5.02
2018-12-27T13:08:14.744Z,4.97
2018-12-27T13:09:14.818Z,4.98
2018-12-27T13:10:14.724Z,4.95
2018-12-27T13:11:14.708Z,4.97
2018-12-27T13:12:14.678Z,5.01
2018-12-27T13:13:14.687Z,4.98
2018-12-27T13:14:14.706Z,5.01
2018-12-27T13:15:14.722Z,5.08
2018-12-27T13:16:14.697Z,5.02
2018-12-27T13:17:14.748Z,4.97
2018-12-27T13:18:14.769Z,5.05
2018-12-27T13:19:14.657Z,5.08
2018-12-27T13:20:14.732Z,5.04
2018-12-27T13:21:14.695Z,4.98
2018-12-27T13:22:14.755Z,5.05
2018-12-27T13:23:15.861Z,5.04
2018-12-27T13:24:14.710Z,5.1
2018-12-27T13:25:14.723Z,5.04
2018-12-27T13:26:14.735Z,5.02
2018-12-27T13:27:14.732Z,5.05
2018-12-27T13:28:14.850Z,5.16
2018-12-27T13:29:14.765Z,5.04
2018-12-27T13:30:14.835Z,5.13
2018-12-27T13:31:25.081Z,4.98
2018-12-27T13:32:14.735Z,5.07
2018-12-27T13:33:14.752Z,5.16
2018-12-27T13:34:14.722Z,5.16
2018-12-27T13:35:14.785Z,5.16
2018-12-27T13:36:14.762Z,5.13
2018-12-27T13:37:14.751Z,5.16
2018-12-27T13:38:14.796Z,5.1
2018-12-27T13:39:14.713Z,5.15
2018-12-27T13:40:14.802Z,5.22
2018-12-27T13:41:14.791Z,5.15
2018-12-27T13:42:14.732Z,5.15
2018-12-27T13:43:24.726Z,5.25
2018-12-27T13:44:14.826Z,5.15
2018-12-27T13:45:14.768Z,5.15
2018-12-27T13:46:14.750Z,5.19
2018-12-27T13:47:14.847Z,5.23
2018-12-27T13:48:14.788Z,5.22
2018-12-27T13:49:14.770Z,5.16
2018-12-27T13:50:14.768Z,5.2
2018-12-27T13:51:14.772Z,5.18
2018-12-27T13:52:14.717Z,5.28
2018-12-27T13:53:14.767Z,5.28
2018-12-27T13:54:14.797Z,5.12
2018-12-27T13:55:14.761Z,5.25
2018-12-27T13:56:14.752Z,5.25
2018-12-27T13:57:14.976Z,5.22
2018-12-27T13:58:14.783Z,5.25
2018-12-27T13:59:14.796Z,5.23
2018-12-27T14:00:14.828Z,5.28
2018-12-27T14:01:14.836Z,5.29
2018-12-27T14:02:14.786Z,5.34
2018-12-27T14:03:14.774Z,5.31
2018-12-27T14:04:14.772Z,5.36
2018-12-27T14:05:14.786Z,5.33
2018-12-27T14:06:14.923Z,5.29
2018-12-27T14:07:14.802Z,5.34
2018-12-27T14:08:14.787Z,5.33
2018-12-27T14:09:14.919Z,5.29
2018-12-27T14:10:14.857Z,5.34
2018-12-27T14:11:14.771Z,5.25
2018-12-27T14:12:14.822Z,5.33
2018-12-27T14:13:14.794Z,5.29
2018-12-27T14:14:14.807Z,5.33
2018-12-27T14:15:14.802Z,5.4
2018-12-27T14:16:14.757Z,5.33
2018-12-27T14:17:14.787Z,5.37
2018-12-27T14:18:14.809Z,5.34
2018-12-27T14:19:14.789Z,5.36
2018-12-27T14:20:14.796Z,5.37
2018-12-27T14:21:16.088Z,5.37
2018-12-27T14:22:44.324Z,5.38
2018-12-27T14:23:14.896Z,5.33
2018-12-27T14:24:14.930Z,5.4
2018-12-27T14:25:14.880Z,5.37
2018-12-27T14:26:14.818Z,5.38
2018-12-27T14:27:14.787Z,5.38
2018-12-27T14:28:14.801Z,5.52
2018-12-27T14:29:14.845Z,5.43
2018-12-27T14:30:14.906Z,5.43
2018-12-27T14:31:14.797Z,5.38
2018-12-27T14:32:14.799Z,5.33
2018-12-27T14:33:14.788Z,5.34
2018-12-27T14:34:14.825Z,5.34
2018-12-27T14:35:14.868Z,5.36
2018-12-27T14:36:14.848Z,5.46
2018-12-27T14:37:14.804Z,5.4
2018-12-27T14:38:14.826Z,5.37
2018-12-27T14:39:14.833Z,5.33
2018-12-27T14:40:14.827Z,5.22
2018-12-27T14:41:14.842Z,5.2
2018-12-27T14:42:14.832Z,5.16